createdAt,value
2019-03-25T00:02:43.640Z,3.20
2019-03-25T00:07:47.112Z,3.52
2019-03-25T00:12:50.564Z,3.15
2019-03-25T00:17:54.044Z,3.02
2019-03-25T00:22:57.505Z,2.08
2019-03-25T00:28:00.967Z,3.40
2019-03-25T00:33:04.437Z,2.55
2019-03-25T00:38:07.911Z,2.20
2019-03-25T00:43:11.383Z,2.85
2019-03-25T00:48:14.844Z,2.47
2019-03-25T00:53:18.305Z,2.08
2019-03-25T00:58:21.767Z,3.00
2019-03-25T01:03:25.223Z,2.25
2019-03-25T01:08:28.678Z,2.40
2019-03-25T01:13:32.138Z,3.45
2019-03-25T01:18:35.591Z,2.43
2019-03-25T01:23:39.047Z,2.92
2019-03-25T01:28:42.572Z,3.05
2019-03-25T01:33:45.976Z,3.45
2019-03-25T01:38:49.438Z,1.77
2019-03-25T01:43:53.063Z,3.52
2019-03-25T01:48:56.524Z,3.22
2019-03-25T01:53:59.984Z,2.77
2019-03-25T01:59:03.439Z,2.00
2019-03-25T02:04:06.908Z,1.90
2019-03-25T02:09:10.369Z,3.87
2019-03-25T02:14:13.850Z,2.40
2019-03-25T02:19:17.312Z,2.83
2019-03-25T02:24:20.774Z,1.55
2019-03-25T02:29:24.234Z,2.03
2019-03-25T02:34:27.694Z,2.00
2019-03-25T02:39:31.162Z,2.12
2019-03-25T02:44:34.639Z,2.42
2019-03-25T02:49:38.121Z,1.65
2019-03-25T02:54:41.571Z,2.50
2019-03-25T02:59:45.032Z,1.98
2019-03-25T03:04:48.507Z,3.22
2019-03-25T03:09:51.955Z,2.47
2019-03-25T03:14:55.422Z,4.03
2019-03-25T03:19:58.897Z,2.12
2019-03-25T03:25:02.483Z,3.33
2019-03-25T03:30:09.580Z,2.17
2019-03-25T03:35:13.107Z,2.43
2019-03-25T03:40:16.574Z,1.87
2019-03-25T03:45:20.021Z,1.90
2019-03-25T03:50:25.322Z,1.57
2019-03-25T03:55:29.729Z,2.50
2019-03-25T04:00:34.411Z,1.62
2019-03-25T04:05:37.872Z,1.57
2019-03-25T04:10:41.387Z,1.77
2019-03-25T04:15:44.826Z,1.57
2019-03-25T04:20:48.259Z,1.63
2019-03-25T04:25:51.748Z,2.65
2019-03-25T04:30:55.203Z,1.62
2019-03-25T04:35:58.665Z,2.62
2019-03-25T04:41:02.127Z,1.98
2019-03-25T04:46:05.583Z,1.60
2019-03-25T04:51:09.111Z,1.47
2019-03-25T04:56:12.583Z,3.72
2019-03-25T05:01:16.052Z,2.95
2019-03-25T05:06:19.512Z,2.03
2019-03-25T05:11:30.559Z,2.15
2019-03-25T05:16:28.155Z,1.90
2019-03-25T05:21:31.616Z,2.33
2019-03-25T05:26:35.144Z,1.60
2019-03-25T05:31:38.606Z,2.02
2019-03-25T05:36:42.063Z,2.98
2019-03-25T05:41:45.523Z,1.00
2019-03-25T05:46:48.981Z,2.65
2019-03-25T05:51:52.441Z,5.67
2019-03-25T05:57:02.440Z,1.80
2019-03-25T06:02:01.102Z,1.35
2019-03-25T06:07:04.561Z,3.98
2019-03-25T06:12:08.017Z,2.60
2019-03-25T06:17:11.470Z,1.30
2019-03-25T06:22:14.928Z,1.90
2019-03-25T06:27:18.393Z,1.87
2019-03-25T06:32:21.851Z,2.20
2019-03-25T06:37:25.308Z,1.25
2019-03-25T06:42:28.765Z,1.85
2019-03-25T06:47:32.225Z,1.25
2019-03-25T06:52:35.688Z,2.80
2019-03-25T06:57:39.151Z,1.72
2019-03-25T07:02:42.602Z,1.53
2019-03-25T07:07:46.058Z,2.87
2019-03-25T07:12:49.587Z,4.92
2019-03-25T07:17:53.042Z,1.82
2019-03-25T07:22:56.502Z,1.60
2019-03-25T07:27:59.962Z,2.58
2019-03-25T07:33:03.421Z,4.60
2019-03-25T07:38:06.875Z,2.05
2019-03-25T07:43:10.336Z,4.70
2019-03-25T07:48:13.792Z,5.75
2019-03-25T07:53:17.253Z,7.30
2019-03-25T07:58:20.714Z,8.55
2019-03-25T08:03:24.188Z,6.22
2019-03-25T08:08:27.645Z,6.75
2019-03-25T08:13:31.086Z,5.80
2019-03-25T08:18:34.544Z,6.15
2019-03-25T08:23:38.073Z,4.30
2019-03-25T08:28:41.610Z,5.27
2019-03-25T08:33:45.083Z,3.45
2019-03-25T08:38:48.543Z,5.42
2019-03-25T08:43:52.007Z,3.03
2019-03-25T08:48:55.470Z,2.42
2019-03-25T08:53:58.930Z,3.37
2019-03-25T08:59:02.399Z,6.40
2019-03-25T09:04:05.851Z,3.30
2019-03-25T09:09:09.585Z,6.05
2019-03-25T09:14:13.054Z,3.15
2019-03-25T09:19:16.504Z,3.98
2019-03-25T09:24:19.968Z,5.45
2019-03-25T09:29:23.431Z,2.97
2019-03-25T09:34:26.888Z,2.98
2019-03-25T09:39:30.355Z,2.80
2019-03-25T09:44:33.808Z,3.03
2019-03-25T09:49:37.337Z,3.10
2019-03-25T09:54:40.798Z,4.80
2019-03-25T09:59:44.261Z,2.22
2019-03-25T10:04:47.722Z,5.20
2019-03-25T10:09:51.179Z,3.55
2019-03-25T10:14:54.641Z,1.65
2019-03-25T10:19:58.102Z,2.07
2019-03-25T10:25:01.566Z,5.97
2019-03-25T10:30:14.562Z,2.16
2019-03-25T10:35:18.020Z,2.40
2019-03-25T10:40:21.492Z,3.40
2019-03-25T10:45:24.966Z,4.40
2019-03-25T10:50:28.423Z,3.25
2019-03-25T10:55:31.911Z,1.80
2019-03-25T11:00:35.644Z,2.77
2019-03-25T11:05:39.105Z,2.02
2019-03-25T11:10:42.643Z,3.95
2019-03-25T11:15:46.106Z,3.90
2019-03-25T11:20:49.570Z,2.02
2019-03-25T11:25:53.029Z,2.72
2019-03-25T11:30:57.823Z,5.03
2019-03-25T11:36:02.806Z,1.90
2019-03-25T11:41:06.404Z,3.02
2019-03-25T11:46:09.930Z,2.60
2019-03-25T11:51:13.404Z,1.77
2019-03-25T11:56:16.898Z,2.72
2019-03-25T12:01:20.351Z,2.90
2019-03-25T12:06:23.834Z,1.45
2019-03-25T12:11:27.316Z,3.15
2019-03-25T12:16:31.523Z,4.33
2019-03-25T12:21:35.054Z,5.03
2019-03-25T12:26:38.538Z,1.45
2019-03-25T12:31:42.010Z,4.67
2019-03-25T12:36:45.558Z,3.83
2019-03-25T12:41:49.031Z,3.75
2019-03-25T12:46:52.516Z,4.50
2019-03-25T12:51:55.985Z,4.30
2019-03-25T12:56:59.487Z,4.47
2019-03-25T13:02:01.969Z,3.98
2019-03-25T13:07:05.371Z,6.85
2019-03-25T13:12:08.843Z,5.62
2019-03-25T13:17:12.320Z,5.90
2019-03-25T13:22:15.802Z,11.05
2019-03-25T13:27:19.284Z,7.35
2019-03-25T13:32:23.591Z,5.90
2019-03-25T13:37:27.068Z,8.18
2019-03-25T13:42:30.550Z,7.58
2019-03-25T13:47:34.035Z,6.80
2019-03-25T13:52:37.520Z,7.95
2019-03-25T13:57:40.989Z,9.53
2019-03-25T14:02:44.466Z,9.08
2019-03-25T14:07:47.958Z,15.08
2019-03-25T14:12:52.056Z,17.17
2019-03-25T14:17:55.613Z,16.67
2019-03-25T14:22:59.102Z,15.10
2019-03-25T14:28:02.583Z,15.38
2019-03-25T14:33:06.114Z,16.40
2019-03-25T14:38:09.561Z,15.32
2019-03-25T14:43:13.049Z,15.38
2019-03-25T14:48:16.537Z,15.63
2019-03-25T14:53:20.032Z,17.40
2019-03-25T14:58:23.521Z,16.52
2019-03-25T15:03:27.076Z,12.37
2019-03-25T15:08:30.563Z,14.65
2019-03-25T15:13:34.042Z,12.53
2019-03-25T15:18:37.530Z,12.47
2019-03-25T15:23:41.021Z,15.13
2019-03-25T15:28:44.509Z,13.95
2019-03-25T15:33:48.002Z,13.38
2019-03-25T15:38:51.469Z,17.40
2019-03-25T15:43:54.935Z,11.33
2019-03-25T15:48:58.397Z,13.80
2019-03-25T15:54:01.991Z,14.23
2019-03-25T15:59:05.449Z,12.98
2019-03-25T16:04:08.913Z,12.58
2019-03-25T16:09:12.383Z,11.33
2019-03-25T16:14:15.852Z,13.72
2019-03-25T16:19:19.321Z,12.07
2019-03-25T16:24:22.782Z,10.13
2019-03-25T16:29:26.240Z,12.15
2019-03-25T16:34:29.712Z,10.80
2019-03-25T16:39:33.168Z,12.98
2019-03-25T16:44:36.634Z,10.65
2019-03-25T16:49:40.104Z,11.35
2019-03-25T16:54:43.567Z,10.57
2019-03-25T16:59:47.031Z,13.07
2019-03-25T17:04:50.492Z,10.95
2019-03-25T17:09:53.958Z,11.18
2019-03-25T17:14:57.425Z,9.55
2019-03-25T17:20:00.886Z,11.00
2019-03-25T17:25:05.999Z,10.40
2019-03-25T17:30:14.915Z,10.72
2019-03-25T17:35:18.373Z,9.67
2019-03-25T17:40:21.926Z,8.57
2019-03-25T17:45:25.494Z,8.70
2019-03-25T17:50:28.958Z,12.78
2019-03-25T17:55:32.415Z,8.83
2019-03-25T18:00:54.182Z,9.87
2019-03-25T18:05:57.650Z,8.47
2019-03-25T18:11:01.109Z,7.78
2019-03-25T18:16:04.659Z,8.73
2019-03-25T18:21:08.096Z,10.48
2019-03-25T18:26:11.628Z,7.83
2019-03-25T18:31:15.086Z,9.20
2019-03-25T18:36:18.546Z,9.08
2019-03-25T18:41:22.005Z,8.23
2019-03-25T18:46:25.644Z,9.38
2019-03-25T18:51:29.180Z,9.30
2019-03-25T18:56:32.642Z,7.67
2019-03-25T19:01:36.099Z,7.72
2019-03-25T19:06:42.001Z,7.65
2019-03-25T19:11:45.635Z,9.03
2019-03-25T19:16:49.093Z,7.50
2019-03-25T19:21:52.559Z,8.28
2019-03-25T19:26:56.014Z,8.43
2019-03-25T19:32:06.525Z,9.43
2019-03-25T19:37:04.837Z,8.45
2019-03-25T19:42:08.306Z,7.87
2019-03-25T19:47:11.791Z,8.33
2019-03-25T19:52:15.237Z,7.67
2019-03-25T19:57:18.689Z,7.05
2019-03-25T20:02:22.162Z,7.92
2019-03-25T20:07:25.642Z,10.58
2019-03-25T20:12:29.060Z,7.47
2019-03-25T20:17:32.525Z,13.20
2019-03-25T20:22:35.985Z,6.55
2019-03-25T20:27:39.487Z,6.33
2019-03-25T20:32:42.999Z,7.50
2019-03-25T20:37:46.793Z,7.22
2019-03-25T20:42:50.308Z,7.12
2019-03-25T20:47:53.792Z,8.00
2019-03-25T20:52:57.283Z,6.67
2019-03-25T20:58:00.751Z,8.57
2019-03-25T21:03:04.221Z,6.08
2019-03-25T21:08:07.705Z,5.47
2019-03-25T21:13:11.299Z,6.67
2019-03-25T21:18:14.837Z,6.03
2019-03-25T21:23:18.312Z,4.92
2019-03-25T21:28:21.796Z,5.50
2019-03-25T21:33:25.317Z,6.70
2019-03-25T21:38:28.745Z,4.87
2019-03-25T21:43:32.312Z,4.90
2019-03-25T21:48:35.819Z,4.65
2019-03-25T21:53:39.330Z,7.67
2019-03-25T21:58:42.808Z,5.35
2019-03-25T22:03:46.277Z,5.58
2019-03-25T22:08:49.751Z,3.92
2019-03-25T22:13:53.231Z,5.15
2019-03-25T22:18:56.704Z,6.28
2019-03-25T22:24:00.186Z,5.08
2019-03-25T22:29:03.667Z,10.80
2019-03-25T22:34:07.143Z,4.97
2019-03-25T22:39:10.627Z,4.47
2019-03-25T22:44:14.105Z,4.78
2019-03-25T22:49:17.582Z,4.97
2019-03-25T22:54:21.040Z,3.30
2019-03-25T22:59:24.499Z,4.67
2019-03-25T23:04:27.955Z,4.62
2019-03-25T23:09:31.415Z,3.60
2019-03-25T23:14:34.878Z,3.80
2019-03-25T23:19:38.715Z,3.90
2019-03-25T23:24:42.363Z,3.92
2019-03-25T23:29:45.820Z,3.72
2019-03-25T23:34:49.277Z,4.08
2019-03-25T23:39:52.735Z,3.95
2019-03-25T23:44:56.196Z,4.72
2019-03-25T23:49:59.652Z,3.45
2019-03-25T23:55:03.251Z,3.70
